Stevensville, MT

2:07 PM MDT on October 25, 2014 (GMT -0600)
MPG Ranch - Orchard House | Change Station
CLOSE
Current Station
Personal Weather Station
Location: Florence, MT
Elevation: 3392 ft
Nearby Weather Stations

Elev 3392 ft 46.68 °N, 114.03 °W | Updated 8 minutes ago

Clear
Clear
48.1 °F
Feels Like 48 °F
N
0.0
Wind Variable Wind from WNW
Gusts 0.0 mph

Today
High -- | Low -- °F
--% Chance of Precip.
Yesterday
High -- | Low -- °F
Precip. -- in
8:07 AM 6:31 PM
Waxing Crescent, 4% visible
Pressure 29.84 in
Visibility 10.0 miles
Clouds Clear
Windchill 48 °F
Dew Point 44 °F
Humidity 85%
Rainfall 0.00 in
Snow Depth Not available.
UV 1.7 out of 12
Pollen 1.40 out of 12
Air Quality Not available.
Flu Activity No Activity
METAR KMSO 251953Z 00000KT 10SM CLR 09/07 A2982 RMK AO2 SLP103 T00940067

More Conditions Fewer Conditions

Pressure 29.84 in
Visibility 10.0 miles
Clouds Clear
Windchill 48 °F
Dew Point 44 °F
Humidity 85%
Rainfall 0.00 in
Snow Depth Not available.
UV 1.7 out of 12
Pollen 1.40 out of 12
Air Quality Not available.
Flu Activity No Activity
METAR KMSO 251953Z 00000KT 10SM CLR 09/07 A2982 RMK AO2 SLP103 T00940067

More Conditions Fewer Conditions

10-Day Weather Forecast

Almanac

Astronomy

Oct. 25, 2014 Rise Set
Actual Time 8:07 AM MDT 6:31 PM MDT
Civil Twilight 7:36 AM MDT 7:02 PM MDT
Nautical Twilight 7:01 AM MDT 7:38 PM MDT
Astronomical Twilight 6:26 AM MDT 8:13 PM MDT
Moon 9:55 AM MDT 7:52 PM MDT
Length of Visible Light 11h 26m
Length of Day
10h 24m
Tomorrow will be 3m 4s shorter.
Waxing Crescent, 4% of the Moon is Illuminated
Today
Waxing Crescent
Oct 30
First Quarter
Nov 6
Full
Nov 14
Last Quarter
Nov 22
New

Today's Extremes

State Highs State Lows

Community

WunderPhotos

Upload Photos

1,764,976 photos uploaded!

Nearby

Snow Depth

Station Depth Elevation
Daly Creek 0 in 5780 ft
Black Pine 1 in 7210 ft
Combination 0 in 5600 ft
Twelvemile Creek 0 in 5600 ft
Twin Lakes 0 in 6400 ft

Earthquake Activity

City Distance Mag. Time & Date
No recent earthquake activity has been reported nearby.
Minimum magnitude displayed is 2.5.

Coastal Water Temperatures

Place Temperature
No Stations Reporting

Nearby Weather Stations